Avant, Oklahoma
Current Conditions -  °F | °C
As of 7:53 AM on Saturday 20 Dec 2014 (Local Time) from KBVO Reporting Station
Haze Haze  
Wind Chill: 37°   Ceiling: 2500
Heat Index: 37°   Visibility: 6mi
Dew Point: 35°   Wind: 0mph
Humidity: 93%   Direction: NA
Pressure: 30.25"   Gusts: NA
Location:  36.49°N, 96.06°W
Report Text: KBVO 201353Z AUTO 00000KT 6SM BR OVC025 03/02 A3025 RMK AO2 SLP245 T00280017
Loading
Personal Weather Stations






























Interactive Weather Map New forecast layout! Learn more

10-Day Weather Forecast

Advertisements
Track Severe Weather on mobile